sensor_id;sensor_type;location;lat;lon;timestamp;pressure;altitude;pressure_sealevel;temperature;humidity
11487;BME280;10510;47.942;9.442;2023-10-09T00:01:23;95385.59;;;10.11;100.00
11487;BME280;10510;47.942;9.442;2023-10-09T00:03:24;95384.78;;;10.11;100.00
11487;BME280;10510;47.942;9.442;2023-10-09T00:05:24;95388.84;;;10.13;100.00
11487;BME280;10510;47.942;9.442;2023-10-09T00:07:38;95387.06;;;10.14;100.00
11487;BME280;10510;47.942;9.442;2023-10-09T00:09:40;95389.03;;;10.12;100.00
11487;BME280;10510;47.942;9.442;2023-10-09T00:11:51;95381.34;;;10.10;100.00
11487;BME280;10510;47.942;9.442;2023-10-09T00:13:58;95381.81;;;10.06;100.00
11487;BME280;10510;47.942;9.442;2023-10-09T00:16:04;95378.72;;;10.02;100.00
11487;BME280;10510;47.942;9.442;2023-10-09T00:18:14;95376.44;;;9.99;100.00
11487;BME280;10510;47.942;9.442;2023-10-09T00:20:15;95374.81;;;9.98;100.00
11487;BME280;10510;47.942;9.442;2023-10-09T00:22:31;95375.47;;;9.92;100.00
11487;BME280;10510;47.942;9.442;2023-10-09T00:24:32;95363.53;;;9.89;100.00
11487;BME280;10510;47.942;9.442;2023-10-09T00:26:32;95369.09;;;9.86;100.00
11487;BME280;10510;47.942;9.442;2023-10-09T00:28:43;95366.47;;;9.86;100.00
11487;BME280;10510;47.942;9.442;2023-10-09T00:30:47;95357.00;;;9.85;100.00
11487;BME280;10510;47.942;9.442;2023-10-09T00:32:47;95354.22;;;9.87;100.00
11487;BME280;10510;47.942;9.442;2023-10-09T00:35:07;95356.34;;;9.83;100.00
11487;BME280;10510;47.942;9.442;2023-10-09T00:37:34;95356.69;;;9.80;100.00
11487;BME280;10510;47.942;9.442;2023-10-09T00:39:34;95352.41;;;9.79;100.00
11487;BME280;10510;47.942;9.442;2023-10-09T00:41:34;95354.22;;;9.78;100.00
11487;BME280;10510;47.942;9.442;2023-10-09T00:43:35;95352.59;;;9.77;100.00
11487;BME280;10510;47.942;9.442;2023-10-09T00:45:37;95349.00;;;9.78;100.00
11487;BME280;10510;47.942;9.442;2023-10-09T00:47:40;95350.13;;;9.76;100.00
11487;BME280;10510;47.942;9.442;2023-10-09T00:49:41;95353.41;;;9.78;100.00
11487;BME280;10510;47.942;9.442;2023-10-09T00:51:48;95346.56;;;9.77;100.00
11487;BME280;10510;47.942;9.442;2023-10-09T00:53:57;95340.53;;;9.76;100.00
11487;BME280;10510;47.942;9.442;2023-10-09T00:56:03;95344.91;;;9.76;100.00
11487;BME280;10510;47.942;9.442;2023-10-09T00:58:19;95337.91;;;9.68;100.00
11487;BME280;10510;47.942;9.442;2023-10-09T01:00:25;95341.13;;;9.54;100.00
11487;BME280;10510;47.942;9.442;2023-10-09T01:02:46;95343.34;;;9.41;100.00
11487;BME280;10510;47.942;9.442;2023-10-09T01:05:03;95341.56;;;9.33;100.00
11487;BME280;10510;47.942;9.442;2023-10-09T01:07:19;95335.19;;;9.27;100.00
11487;BME280;10510;47.942;9.442;2023-10-09T01:09:25;95338.91;;;9.25;100.00
11487;BME280;10510;47.942;9.442;2023-10-09T01:11:28;95346.75;;;9.25;100.00
11487;BME280;10510;47.942;9.442;2023-10-09T01:13:31;95335.50;;;9.24;100.00
11487;BME280;10510;47.942;9.442;2023-10-09T01:15:53;95334.38;;;9.27;100.00
11487;BME280;10510;47.942;9.442;2023-10-09T01:17:53;95334.50;;;9.25;100.00
11487;BME280;10510;47.942;9.442;2023-10-09T01:19:53;95330.78;;;9.28;100.00
11487;BME280;10510;47.942;9.442;2023-10-09T01:21:57;95332.09;;;9.32;100.00
11487;BME280;10510;47.942;9.442;2023-10-09T01:24:13;95325.41;;;9.29;100.00
11487;BME280;10510;47.942;9.442;2023-10-09T01:26:13;95333.88;;;9.31;100.00
11487;BME280;10510;47.942;9.442;2023-10-09T01:28:13;95335.34;;;9.34;100.00
11487;BME280;10510;47.942;9.442;2023-10-09T01:30:15;95327.53;;;9.34;100.00
11487;BME280;10510;47.942;9.442;2023-10-09T01:32:16;95324.94;;;9.34;100.00
11487;BME280;10510;47.942;9.442;2023-10-09T01:34:19;95322.50;;;9.32;100.00
11487;BME280;10510;47.942;9.442;2023-10-09T01:36:24;95318.09;;;9.33;100.00
11487;BME280;10510;47.942;9.442;2023-10-09T01:38:31;95316.44;;;9.32;100.00
11487;BME280;10510;47.942;9.442;2023-10-09T01:40:40;95317.41;;;9.31;100.00
11487;BME280;10510;47.942;9.442;2023-10-09T01:42:40;95317.59;;;9.29;100.00
11487;BME280;10510;47.942;9.442;2023-10-09T01:44:45;95316.59;;;9.30;100.00
11487;BME280;10510;47.942;9.442;2023-10-09T01:46:48;95318.41;;;9.30;100.00
11487;BME280;10510;47.942;9.442;2023-10-09T01:48:48;95316.59;;;9.30;100.00
11487;BME280;10510;47.942;9.442;2023-10-09T01:50:49;95309.75;;;9.29;100.00
11487;BME280;10510;47.942;9.442;2023-10-09T01:52:49;95310.56;;;9.30;100.00
11487;BME280;10510;47.942;9.442;2023-10-09T01:54:51;95306.31;;;9.29;100.00
11487;BME280;10510;47.942;9.442;2023-10-09T01:56:53;95305.50;;;9.28;100.00
11487;BME280;10510;47.942;9.442;2023-10-09T01:58:56;95304.69;;;9.28;100.00
11487;BME280;10510;47.942;9.442;2023-10-09T02:01:02;95298.81;;;9.26;100.00
11487;BME280;10510;47.942;9.442;2023-10-09T02:03:06;95298.16;;;9.24;100.00
11487;BME280;10510;47.942;9.442;2023-10-09T02:05:13;95296.84;;;9.20;100.00
11487;BME280;10510;47.942;9.442;2023-10-09T02:07:16;95291.63;;;9.20;100.00
11487;BME280;10510;47.942;9.442;2023-10-09T02:09:22;95297.66;;;9.20;100.00
11487;BME280;10510;47.942;9.442;2023-10-09T02:11:30;95297.16;;;9.17;100.00
11487;BME280;10510;47.942;9.442;2023-10-09T02:13:36;95296.66;;;9.13;100.00
11487;BME280;10510;47.942;9.442;2023-10-09T02:15:41;95296.16;;;9.09;100.00
11487;BME280;10510;47.942;9.442;2023-10-09T02:17:45;95294.50;;;9.08;100.00
11487;BME280;10510;47.942;9.442;2023-10-09T02:20:00;95287.84;;;9.06;100.00
11487;BME280;10510;47.942;9.442;2023-10-09T02:22:16;95291.72;;;9.02;100.00
11487;BME280;10510;47.942;9.442;2023-10-09T02:24:17;95287.00;;;8.97;100.00
11487;BME280;10510;47.942;9.442;2023-10-09T02:26:37;95284.72;;;8.94;100.00
11487;BME280;10510;47.942;9.442;2023-10-09T02:29:00;95284.84;;;8.93;100.00
11487;BME280;10510;47.942;9.442;2023-10-09T02:31:11;95285.00;;;8.91;100.00
11487;BME280;10510;47.942;9.442;2023-10-09T02:33:13;95282.91;;;8.95;100.00
11487;BME280;10510;47.942;9.442;2023-10-09T02:35:14;95285.34;;;8.96;100.00
11487;BME280;10510;47.942;9.442;2023-10-09T02:37:33;95283.09;;;9.01;100.00
11487;BME280;10510;47.942;9.442;2023-10-09T02:39:37;95278.56;;;9.03;100.00
11487;BME280;10510;47.942;9.442;2023-10-09T02:41:43;95272.50;;;9.03;100.00
11487;BME280;10510;47.942;9.442;2023-10-09T02:43:49;95274.47;;;9.01;100.00
11487;BME280;10510;47.942;9.442;2023-10-09T02:45:55;95274.59;;;8.99;100.00
11487;BME280;10510;47.942;9.442;2023-10-09T02:47:55;95272.31;;;8.96;100.00
11487;BME280;10510;47.942;9.442;2023-10-09T02:49:56;95264.50;;;8.96;100.00
11487;BME280;10510;47.942;9.442;2023-10-09T02:52:01;95265.47;;;8.95;100.00
11487;BME280;10510;47.942;9.442;2023-10-09T02:54:07;95265.47;;;8.95;100.00
11487;BME280;10510;47.942;9.442;2023-10-09T02:56:17;95262.56;;;8.98;100.00
11487;BME280;10510;47.942;9.442;2023-10-09T02:58:24;95260.75;;;8.99;100.00
11487;BME280;10510;47.942;9.442;2023-10-09T03:00:24;95263.38;;;8.99;100.00
11487;BME280;10510;47.942;9.442;2023-10-09T03:02:30;95258.97;;;8.99;100.00
11487;BME280;10510;47.942;9.442;2023-10-09T03:04:31;95262.25;;;9.01;100.00
11487;BME280;10510;47.942;9.442;2023-10-09T03:06:33;95258.66;;;9.02;100.00
11487;BME280;10510;47.942;9.442;2023-10-09T03:08:38;95253.94;;;9.06;100.00
11487;BME280;10510;47.942;9.442;2023-10-09T03:10:40;95245.28;;;9.05;100.00
11487;BME280;10510;47.942;9.442;2023-10-09T03:12:40;95258.19;;;9.07;100.00
11487;BME280;10510;47.942;9.442;2023-10-09T03:14:43;95249.06;;;9.11;100.00
11487;BME280;10510;47.942;9.442;2023-10-09T03:16:43;95246.13;;;9.14;100.00
11487;BME280;10510;47.942;9.442;2023-10-09T03:18:47;95244.84;;;9.18;100.00
11487;BME280;10510;47.942;9.442;2023-10-09T03:20:49;95247.94;;;9.22;100.00
11487;BME280;10510;47.942;9.442;2023-10-09T03:22:50;95247.78;;;9.23;100.00
11487;BME280;10510;47.942;9.442;2023-10-09T03:24:50;95246.66;;;9.26;100.00
11487;BME280;10510;47.942;9.442;2023-10-09T03:26:53;95239.47;;;9.28;100.00
11487;BME280;10510;47.942;9.442;2023-10-09T03:28:55;95246.66;;;9.34;100.00
11487;BME280;10510;47.942;9.442;2023-10-09T03:30:56;95237.22;;;9.41;100.00
11487;BME280;10510;47.942;9.442;2023-10-09T03:32:59;95235.28;;;9.51;100.00
11487;BME280;10510;47.942;9.442;2023-10-09T03:35:02;95238.72;;;9.60;100.00
11487;BME280;10510;47.942;9.442;2023-10-09T03:37:03;95235.94;;;9.70;100.00
11487;BME280;10510;47.942;9.442;2023-10-09T03:39:20;95236.94;;;9.77;100.00
11487;BME280;10510;47.942;9.442;2023-10-09T03:41:36;95233.31;;;9.78;100.00
11487;BME280;10510;47.942;9.442;2023-10-09T03:43:42;95241.00;;;9.80;100.00
11487;BME280;10510;47.942;9.442;2023-10-09T03:45:42;95238.69;;;9.85;100.00
11487;BME280;10510;47.942;9.442;2023-10-09T03:47:49;95235.59;;;9.89;100.00
11487;BME280;10510;47.942;9.442;2023-10-09T03:49:50;95236.25;;;9.91;100.00
11487;BME280;10510;47.942;9.442;2023-10-09T03:51:53;95234.94;;;9.95;100.00
11487;BME280;10510;47.942;9.442;2023-10-09T03:53:55;95230.88;;;10.01;100.00
11487;BME280;10510;47.942;9.442;2023-10-09T03:55:56;95240.31;;;10.10;100.00
11487;BME280;10510;47.942;9.442;2023-10-09T03:57:56;95241.78;;;10.13;100.00
11487;BME280;10510;47.942;9.442;2023-10-09T04:00:01;95240.31;;;10.18;100.00
11487;BME280;10510;47.942;9.442;2023-10-09T04:02:11;95242.25;;;10.24;100.00
11487;BME280;10510;47.942;9.442;2023-10-09T04:04:12;95233.59;;;10.32;100.00
11487;BME280;10510;47.942;9.442;2023-10-09T04:06:14;95237.53;;;10.36;100.00
11487;BME280;10510;47.942;9.442;2023-10-09T04:08:17;95229.00;;;10.42;100.00
11487;BME280;10510;47.942;9.442;2023-10-09T04:10:20;95232.91;;;10.46;100.00
11487;BME280;10510;47.942;9.442;2023-10-09T04:12:33;95233.75;;;10.47;100.00
11487;BME280;10510;47.942;9.442;2023-10-09T04:14:34;95228.19;;;10.50;100.00
11487;BME280;10510;47.942;9.442;2023-10-09T04:16:34;95228.31;;;10.57;100.00
11487;BME280;10510;47.942;9.442;2023-10-09T04:18:35;95231.72;;;10.65;100.00
11487;BME280;10510;47.942;9.442;2023-10-09T04:20:38;95230.34;;;10.78;100.00
11487;BME280;10510;47.942;9.442;2023-10-09T04:22:55;95230.94;;;10.88;100.00
11487;BME280;10510;47.942;9.442;2023-10-09T04:25:06;95234.69;;;10.94;100.00
11487;BME280;10510;47.942;9.442;2023-10-09T04:27:15;95229.78;;;10.99;100.00
11487;BME280;10510;47.942;9.442;2023-10-09T04:29:17;95240.19;;;11.07;100.00
11487;BME280;10510;47.942;9.442;2023-10-09T04:31:36;95234.75;;;11.17;100.00
11487;BME280;10510;47.942;9.442;2023-10-09T04:33:37;95229.94;;;11.28;100.00
11487;BME280;10510;47.942;9.442;2023-10-09T04:36:08;95223.94;;;11.43;100.00
11487;BME280;10510;47.942;9.442;2023-10-09T04:38:20;95223.72;;;11.52;100.00
11487;BME280;10510;47.942;9.442;2023-10-09T04:40:22;95223.84;;;11.59;100.00
11487;BME280;10510;47.942;9.442;2023-10-09T04:42:41;95222.19;;;11.58;100.00
11487;BME280;10510;47.942;9.442;2023-10-09T04:44:58;95229.09;;;11.59;100.00
11487;BME280;10510;47.942;9.442;2023-10-09T04:47:00;95235.13;;;11.59;100.00
11487;BME280;10510;47.942;9.442;2023-10-09T04:49:10;95226.28;;;11.60;100.00
11487;BME280;10510;47.942;9.442;2023-10-09T04:51:29;95232.31;;;11.61;100.00
11487;BME280;10510;47.942;9.442;2023-10-09T04:53:36;95226.47;;;11.59;100.00
11487;BME280;10510;47.942;9.442;2023-10-09T04:55:44;95228.72;;;11.62;100.00
11487;BME280;10510;47.942;9.442;2023-10-09T04:57:54;95219.69;;;11.65;100.00
11487;BME280;10510;47.942;9.442;2023-10-09T05:00:10;95222.31;;;11.65;100.00
11487;BME280;10510;47.942;9.442;2023-10-09T05:02:25;95225.13;;;11.63;100.00
11487;BME280;10510;47.942;9.442;2023-10-09T05:04:36;95225.81;;;11.57;100.00
11487;BME280;10510;47.942;9.442;2023-10-09T05:06:39;95225.06;;;11.48;100.00
11487;BME280;10510;47.942;9.442;2023-10-09T05:08:57;95233.16;;;11.39;100.00
11487;BME280;10510;47.942;9.442;2023-10-09T05:11:07;95224.53;;;11.30;100.00
11487;BME280;10510;47.942;9.442;2023-10-09T05:13:15;95228.53;;;11.41;100.00
11487;BME280;10510;47.942;9.442;2023-10-09T05:15:27;95224.81;;;11.58;100.00
11487;BME280;10510;47.942;9.442;2023-10-09T05:17:29;95223.19;;;11.80;100.00
11487;BME280;10510;47.942;9.442;2023-10-09T05:19:34;95223.06;;;11.96;100.00
11487;BME280;10510;47.942;9.442;2023-10-09T05:21:54;95226.72;;;12.10;100.00
11487;BME280;10510;47.942;9.442;2023-10-09T05:23:59;95230.81;;;12.27;100.00
11487;BME280;10510;47.942;9.442;2023-10-09T05:26:19;95233.25;;;12.44;100.00
11487;BME280;10510;47.942;9.442;2023-10-09T05:28:50;95232.91;;;12.62;100.00
11487;BME280;10510;47.942;9.442;2023-10-09T05:30:52;95232.63;;;12.71;100.00
11487;BME280;10510;47.942;9.442;2023-10-09T05:33:07;95225.75;;;12.85;100.00
11487;BME280;10510;47.942;9.442;2023-10-09T05:35:26;95225.09;;;12.98;100.00
11487;BME280;10510;47.942;9.442;2023-10-09T05:37:59;95230.03;;;13.08;100.00
11487;BME280;10510;47.942;9.442;2023-10-09T05:40:05;95227.47;;;13.14;100.00
11487;BME280;10510;47.942;9.442;2023-10-09T05:42:17;95222.13;;;13.23;100.00
11487;BME280;10510;47.942;9.442;2023-10-09T05:44:18;95225.88;;;13.28;100.00
11487;BME280;10510;47.942;9.442;2023-10-09T05:46:42;95232.81;;;13.36;100.00
11487;BME280;10510;47.942;9.442;2023-10-09T05:49:01;95231.88;;;13.44;100.00
11487;BME280;10510;47.942;9.442;2023-10-09T05:51:09;95234.38;;;13.52;100.00
11487;BME280;10510;47.942;9.442;2023-10-09T05:53:09;95238.25;;;13.56;100.00
11487;BME280;10510;47.942;9.442;2023-10-09T05:55:38;95238.94;;;13.64;100.00
11487;BME280;10510;47.942;9.442;2023-10-09T05:57:57;95242.09;;;13.75;100.00
11487;BME280;10510;47.942;9.442;2023-10-09T06:00:03;95236.72;;;13.83;100.00
11487;BME280;10510;47.942;9.442;2023-10-09T06:02:33;95247.28;;;13.90;100.00
11487;BME280;10510;47.942;9.442;2023-10-09T06:05:05;95243.72;;;13.97;100.00
11487;BME280;10510;47.942;9.442;2023-10-09T06:07:25;95240.31;;;14.03;100.00
11487;BME280;10510;47.942;9.442;2023-10-09T06:09:40;95242.94;;;14.03;100.00
11487;BME280;10510;47.942;9.442;2023-10-09T06:11:52;95248.63;;;14.07;100.00
11487;BME280;10510;47.942;9.442;2023-10-09T06:14:16;95247.63;;;14.08;100.00
11487;BME280;10510;47.942;9.442;2023-10-09T06:16:38;95251.91;;;14.09;100.00
11487;BME280;10510;47.942;9.442;2023-10-09T06:18:39;95246.44;;;14.11;100.00
11487;BME280;10510;47.942;9.442;2023-10-09T06:20:41;95255.38;;;14.16;100.00
11487;BME280;10510;47.942;9.442;2023-10-09T06:23:01;95259.06;;;14.22;100.00
11487;BME280;10510;47.942;9.442;2023-10-09T06:25:15;95261.72;;;14.28;100.00
11487;BME280;10510;47.942;9.442;2023-10-09T06:27:18;95263.16;;;14.31;100.00
11487;BME280;10510;47.942;9.442;2023-10-09T06:29:30;95277.53;;;14.35;100.00
11487;BME280;10510;47.942;9.442;2023-10-09T06:31:35;95268.47;;;14.38;100.00
11487;BME280;10510;47.942;9.442;2023-10-09T06:33:55;95268.47;;;14.38;100.00
11487;BME280;10510;47.942;9.442;2023-10-09T06:36:15;95274.75;;;14.37;100.00
11487;BME280;10510;47.942;9.442;2023-10-09T06:38:18;95274.13;;;14.35;100.00
11487;BME280;10510;47.942;9.442;2023-10-09T06:40:35;95280.38;;;14.34;100.00
11487;BME280;10510;47.942;9.442;2023-10-09T06:42:38;95279.63;;;14.40;100.00
11487;BME280;10510;47.942;9.442;2023-10-09T06:44:39;95277.44;;;14.50;100.00
11487;BME280;10510;47.942;9.442;2023-10-09T06:46:54;95283.03;;;14.62;100.00
11487;BME280;10510;47.942;9.442;2023-10-09T06:48:57;95288.38;;;14.75;100.00
11487;BME280;10510;47.942;9.442;2023-10-09T06:51:04;95278.94;;;14.87;100.00
11487;BME280;10510;47.942;9.442;2023-10-09T06:53:15;95284.06;;;15.02;100.00
11487;BME280;10510;47.942;9.442;2023-10-09T06:55:16;95289.22;;;15.17;100.00
11487;BME280;10510;47.942;9.442;2023-10-09T06:57:19;95289.28;;;15.30;100.00
11487;BME280;10510;47.942;9.442;2023-10-09T06:59:40;95287.88;;;15.41;100.00
11487;BME280;10510;47.942;9.442;2023-10-09T07:01:43;95285.09;;;15.56;100.00
11487;BME280;10510;47.942;9.442;2023-10-09T07:03:44;95282.91;;;15.66;100.00
11487;BME280;10510;47.942;9.442;2023-10-09T07:06:02;95287.00;;;15.75;100.00
11487;BME280;10510;47.942;9.442;2023-10-09T07:08:05;95285.63;;;15.86;100.00
11487;BME280;10510;47.942;9.442;2023-10-09T07:10:25;95291.91;;;15.92;100.00
11487;BME280;10510;47.942;9.442;2023-10-09T07:12:33;95287.84;;;16.02;100.00
11487;BME280;10510;47.942;9.442;2023-10-09T07:14:33;95283.41;;;16.16;100.00
11487;BME280;10510;47.942;9.442;2023-10-09T07:16:36;95281.38;;;16.31;100.00
11487;BME280;10510;47.942;9.442;2023-10-09T07:18:39;95289.31;;;16.51;100.00
11487;BME280;10510;47.942;9.442;2023-10-09T07:20:49;95293.91;;;17.09;100.00
11487;BME280;10510;47.942;9.442;2023-10-09T07:23:10;95285.25;;;18.92;100.00
11487;BME280;10510;47.942;9.442;2023-10-09T07:25:21;95285.91;;;20.33;100.00
11487;BME280;10510;47.942;9.442;2023-10-09T07:27:40;95285.97;;;22.13;100.00
11487;BME280;10510;47.942;9.442;2023-10-09T07:29:48;95278.72;;;23.71;100.00
11487;BME280;10510;47.942;9.442;2023-10-09T07:31:51;95284.81;;;24.80;100.00
11487;BME280;10510;47.942;9.442;2023-10-09T07:33:57;95281.34;;;25.85;100.00
11487;BME280;10510;47.942;9.442;2023-10-09T07:36:00;95278.78;;;26.61;100.00
11487;BME280;10510;47.942;9.442;2023-10-09T07:38:06;95274.94;;;27.29;100.00
11487;BME280;10510;47.942;9.442;2023-10-09T07:40:10;95271.47;;;27.08;100.00
11487;BME280;10510;47.942;9.442;2023-10-09T07:42:15;95273.41;;;26.77;100.00
11487;BME280;10510;47.942;9.442;2023-10-09T07:44:18;95273.16;;;26.53;100.00
11487;BME280;10510;47.942;9.442;2023-10-09T07:46:36;95274.94;;;25.28;100.00
11487;BME280;10510;47.942;9.442;2023-10-09T07:48:52;95268.03;;;26.46;100.00
11487;BME280;10510;47.942;9.442;2023-10-09T07:50:52;95279.91;;;27.66;100.00
11487;BME280;10510;47.942;9.442;2023-10-09T07:53:05;95276.06;;;26.15;100.00
11487;BME280;10510;47.942;9.442;2023-10-09T07:55:24;95278.16;;;24.50;100.00
11487;BME280;10510;47.942;9.442;2023-10-09T07:57:29;95278.72;;;23.71;100.00
11487;BME280;10510;47.942;9.442;2023-10-09T07:59:38;95279.25;;;22.73;100.00
11487;BME280;10510;47.942;9.442;2023-10-09T08:01:46;95290.09;;;22.04;100.00
11487;BME280;10510;47.942;9.442;2023-10-09T08:03:52;95280.22;;;21.59;100.00
11487;BME280;10510;47.942;9.442;2023-10-09T08:06:02;95292.03;;;21.40;100.00
11487;BME280;10510;47.942;9.442;2023-10-09T08:08:21;95287.06;;;21.31;100.00
11487;BME280;10510;47.942;9.442;2023-10-09T08:10:33;95294.88;;;21.90;100.00
11487;BME280;10510;47.942;9.442;2023-10-09T08:12:34;95297.38;;;21.97;100.00
11487;BME280;10510;47.942;9.442;2023-10-09T08:14:58;95296.47;;;22.03;100.00
11487;BME280;10510;47.942;9.442;2023-10-09T08:17:17;95291.66;;;22.67;100.00
11487;BME280;10510;47.942;9.442;2023-10-09T08:19:20;95291.53;;;22.57;100.00
11487;BME280;10510;47.942;9.442;2023-10-09T08:21:33;95289.09;;;22.22;100.00
11487;BME280;10510;47.942;9.442;2023-10-09T08:23:42;95296.63;;;21.85;100.00
11487;BME280;10510;47.942;9.442;2023-10-09T08:25:48;95298.22;;;21.69;100.00
11487;BME280;10510;47.942;9.442;2023-10-09T08:28:10;95296.41;;;21.34;100.00
11487;BME280;10510;47.942;9.442;2023-10-09T08:30:24;95294.84;;;21.21;100.00
11487;BME280;10510;47.942;9.442;2023-10-09T08:32:27;95302.53;;;21.87;100.00
11487;BME280;10510;47.942;9.442;2023-10-09T08:34:38;95297.00;;;21.76;100.00
11487;BME280;10510;47.942;9.442;2023-10-09T08:36:53;95304.19;;;21.47;100.00
11487;BME280;10510;47.942;9.442;2023-10-09T08:38:56;95301.13;;;21.55;100.00
11487;BME280;10510;47.942;9.442;2023-10-09T08:41:08;95306.72;;;21.19;100.00
11487;BME280;10510;47.942;9.442;2023-10-09T08:43:20;95297.72;;;20.96;100.00
11487;BME280;10510;47.942;9.442;2023-10-09T08:45:22;95298.06;;;20.76;100.00
11487;BME280;10510;47.942;9.442;2023-10-09T08:47:27;95302.38;;;20.66;100.00
11487;BME280;10510;47.942;9.442;2023-10-09T08:49:28;95305.34;;;20.57;100.00
11487;BME280;10510;47.942;9.442;2023-10-09T08:51:28;95297.03;;;20.54;100.00
11487;BME280;10510;47.942;9.442;2023-10-09T08:53:30;95297.66;;;20.37;100.00
11487;BME280;10510;47.942;9.442;2023-10-09T08:55:31;95292.69;;;20.29;100.00
11487;BME280;10510;47.942;9.442;2023-10-09T08:57:32;95291.06;;;20.28;100.00
11487;BME280;10510;47.942;9.442;2023-10-09T08:59:40;95297.31;;;20.34;100.00
11487;BME280;10510;47.942;9.442;2023-10-09T09:01:42;95293.53;;;20.41;100.00
11487;BME280;10510;47.942;9.442;2023-10-09T09:03:42;95289.84;;;20.42;100.00
11487;BME280;10510;47.942;9.442;2023-10-09T09:05:47;95290.63;;;20.43;100.00
11487;BME280;10510;47.942;9.442;2023-10-09T09:07:52;95296.28;;;20.47;100.00
11487;BME280;10510;47.942;9.442;2023-10-09T09:09:57;95301.16;;;20.50;100.00
11487;BME280;10510;47.942;9.442;2023-10-09T09:11:58;95301.78;;;20.63;100.00
11487;BME280;10510;47.942;9.442;2023-10-09T09:14:01;95306.75;;;20.72;100.00
11487;BME280;10510;47.942;9.442;2023-10-09T09:16:13;95307.44;;;20.67;100.00
11487;BME280;10510;47.942;9.442;2023-10-09T09:18:15;95312.63;;;20.62;100.00
11487;BME280;10510;47.942;9.442;2023-10-09T09:20:25;95307.88;;;20.64;100.00
11487;BME280;10510;47.942;9.442;2023-10-09T09:22:51;95296.72;;;20.62;100.00
11487;BME280;10510;47.942;9.442;2023-10-09T09:24:59;95310.31;;;20.54;100.00
11487;BME280;10510;47.942;9.442;2023-10-09T09:27:05;95307.66;;;20.54;100.00
11487;BME280;10510;47.942;9.442;2023-10-09T09:29:21;95313.66;;;20.61;100.00
11487;BME280;10510;47.942;9.442;2023-10-09T09:31:24;95312.06;;;20.72;100.00
11487;BME280;10510;47.942;9.442;2023-10-09T09:33:28;95311.00;;;20.96;100.00
11487;BME280;10510;47.942;9.442;2023-10-09T09:35:39;95308.00;;;21.04;100.00
11487;BME280;10510;47.942;9.442;2023-10-09T09:37:55;95308.59;;;21.06;100.00
11487;BME280;10510;47.942;9.442;2023-10-09T09:40:03;95309.63;;;21.05;100.00
11487;BME280;10510;47.942;9.442;2023-10-09T09:42:15;95300.72;;;21.00;100.00
11487;BME280;10510;47.942;9.442;2023-10-09T09:44:17;95305.69;;;20.96;100.00
11487;BME280;10510;47.942;9.442;2023-10-09T09:46:24;95303.38;;;21.00;100.00
11487;BME280;10510;47.942;9.442;2023-10-09T09:48:38;95314.38;;;21.03;100.00
11487;BME280;10510;47.942;9.442;2023-10-09T09:50:39;95309.41;;;21.07;100.00
11487;BME280;10510;47.942;9.442;2023-10-09T09:52:47;95311.94;;;21.02;100.00
11487;BME280;10510;47.942;9.442;2023-10-09T09:54:47;95311.25;;;20.95;100.00
11487;BME280;10510;47.942;9.442;2023-10-09T09:56:52;95309.16;;;20.97;100.00
11487;BME280;10510;47.942;9.442;2023-10-09T09:58:57;95316.44;;;21.01;100.00
11487;BME280;10510;47.942;9.442;2023-10-09T10:01:06;95310.34;;;21.01;100.00
11487;BME280;10510;47.942;9.442;2023-10-09T10:03:20;95317.97;;;21.09;100.00
11487;BME280;10510;47.942;9.442;2023-10-09T10:05:22;95322.69;;;21.07;100.00
11487;BME280;10510;47.942;9.442;2023-10-09T10:07:23;95319.22;;;21.06;100.00
11487;BME280;10510;47.942;9.442;2023-10-09T10:11:48;95320.50;;;21.04;100.00
11487;BME280;10510;47.942;9.442;2023-10-09T10:13:54;95322.56;;;21.14;100.00
11487;BME280;10510;47.942;9.442;2023-10-09T10:16:00;95322.78;;;21.24;100.00
11487;BME280;10510;47.942;9.442;2023-10-09T10:18:09;95327.41;;;21.28;100.00
11487;BME280;10510;47.942;9.442;2023-10-09T10:20:10;95324.41;;;21.37;100.00
11487;BME280;10510;47.942;9.442;2023-10-09T10:22:29;95321.41;;;21.45;100.00
11487;BME280;10510;47.942;9.442;2023-10-09T10:29:19;95312.97;;;21.76;100.00
11487;BME280;10510;47.942;9.442;2023-10-09T10:35:53;95316.69;;;22.04;100.00
11487;BME280;10510;47.942;9.442;2023-10-09T10:37:55;95315.16;;;22.08;100.00
11487;BME280;10510;47.942;9.442;2023-10-09T10:40:11;95313.41;;;22.14;100.00
11487;BME280;10510;47.942;9.442;2023-10-09T10:42:29;95311.44;;;22.21;100.00
11487;BME280;10510;47.942;9.442;2023-10-09T10:44:36;95316.59;;;22.28;100.00
11487;BME280;10510;47.942;9.442;2023-10-09T10:46:40;95320.78;;;22.23;100.00
11487;BME280;10510;47.942;9.442;2023-10-09T10:48:46;95319.00;;;22.29;100.00
11487;BME280;10510;47.942;9.442;2023-10-09T10:50:56;95317.34;;;22.57;100.00
11487;BME280;10510;47.942;9.442;2023-10-09T10:53:11;95314.34;;;22.70;100.00
11487;BME280;10510;47.942;9.442;2023-10-09T10:55:14;95305.88;;;22.90;100.00
11487;BME280;10510;47.942;9.442;2023-10-09T10:57:44;95302.84;;;23.20;100.00
11487;BME280;10510;47.942;9.442;2023-10-09T10:59:57;95311.50;;;23.49;100.00
11487;BME280;10510;47.942;9.442;2023-10-09T11:02:12;95307.59;;;23.79;100.00
11487;BME280;10510;47.942;9.442;2023-10-09T11:04:12;95310.25;;;24.01;100.00
11487;BME280;10510;47.942;9.442;2023-10-09T11:06:13;95304.84;;;24.18;100.00
11487;BME280;10510;47.942;9.442;2023-10-09T11:08:14;95300.66;;;24.32;100.00
11487;BME280;10510;47.942;9.442;2023-10-09T11:10:21;95293.44;;;24.28;100.00
11487;BME280;10510;47.942;9.442;2023-10-09T11:12:28;95294.34;;;24.11;100.00
11487;BME280;10510;47.942;9.442;2023-10-09T11:14:46;95291.16;;;23.87;100.00
11487;BME280;10510;47.942;9.442;2023-10-09T11:17:05;95286.94;;;23.69;100.00
11487;BME280;10510;47.942;9.442;2023-10-09T11:19:25;95288.63;;;23.53;100.00
11487;BME280;10510;47.942;9.442;2023-10-09T11:21:28;95285.25;;;23.41;100.00
11487;BME280;10510;47.942;9.442;2023-10-09T11:23:32;95280.91;;;23.35;100.00